sensor_id;sensor_type;location;lat;lon;timestamp;temperature;humidity
48836;DHT22;62581;47.342;7.908;2023-05-07T00:00:29;15.50;99.90
48836;DHT22;62581;47.342;7.908;2023-05-07T00:02:56;15.40;99.90
48836;DHT22;62581;47.342;7.908;2023-05-07T00:05:23;15.40;99.90
48836;DHT22;62581;47.342;7.908;2023-05-07T00:07:50;15.30;99.90
48836;DHT22;62581;47.342;7.908;2023-05-07T00:10:19;15.30;99.90
48836;DHT22;62581;47.342;7.908;2023-05-07T00:12:46;15.30;99.90
48836;DHT22;62581;47.342;7.908;2023-05-07T00:15:12;15.20;99.90
48836;DHT22;62581;47.342;7.908;2023-05-07T00:17:39;15.20;99.90
48836;DHT22;62581;47.342;7.908;2023-05-07T00:20:06;15.20;99.90
48836;DHT22;62581;47.342;7.908;2023-05-07T00:22:33;15.10;99.90
48836;DHT22;62581;47.342;7.908;2023-05-07T00:25:00;15.10;99.90
48836;DHT22;62581;47.342;7.908;2023-05-07T00:27:28;15.10;99.90
48836;DHT22;62581;47.342;7.908;2023-05-07T00:29:55;15.10;99.90
48836;DHT22;62581;47.342;7.908;2023-05-07T00:32:21;15.10;99.90
48836;DHT22;62581;47.342;7.908;2023-05-07T00:34:48;15.00;99.90
48836;DHT22;62581;47.342;7.908;2023-05-07T00:37:16;15.10;99.90
48836;DHT22;62581;47.342;7.908;2023-05-07T00:39:42;15.00;99.90
48836;DHT22;62581;47.342;7.908;2023-05-07T00:42:09;15.00;99.90
48836;DHT22;62581;47.342;7.908;2023-05-07T00:44:37;14.90;99.90
48836;DHT22;62581;47.342;7.908;2023-05-07T00:47:04;14.90;99.90
48836;DHT22;62581;47.342;7.908;2023-05-07T00:49:37;14.80;99.90
48836;DHT22;62581;47.342;7.908;2023-05-07T00:52:05;14.70;99.90
48836;DHT22;62581;47.342;7.908;2023-05-07T00:54:32;14.60;99.90
48836;DHT22;62581;47.342;7.908;2023-05-07T00:57:00;14.60;99.90
48836;DHT22;62581;47.342;7.908;2023-05-07T00:59:28;14.60;99.90
48836;DHT22;62581;47.342;7.908;2023-05-07T01:01:56;14.60;99.90
48836;DHT22;62581;47.342;7.908;2023-05-07T01:04:23;14.60;99.90
48836;DHT22;62581;47.342;7.908;2023-05-07T01:06:50;14.60;99.90
48836;DHT22;62581;47.342;7.908;2023-05-07T01:09:17;14.60;99.90
48836;DHT22;62581;47.342;7.908;2023-05-07T01:11:44;14.60;99.90
48836;DHT22;62581;47.342;7.908;2023-05-07T01:14:11;14.50;99.90
48836;DHT22;62581;47.342;7.908;2023-05-07T01:16:38;14.50;99.90
48836;DHT22;62581;47.342;7.908;2023-05-07T01:19:08;14.60;99.90
48836;DHT22;62581;47.342;7.908;2023-05-07T01:21:36;14.50;99.90
48836;DHT22;62581;47.342;7.908;2023-05-07T01:24:05;14.50;99.90
48836;DHT22;62581;47.342;7.908;2023-05-07T01:26:32;14.50;99.90
48836;DHT22;62581;47.342;7.908;2023-05-07T01:28:59;14.40;99.90
48836;DHT22;62581;47.342;7.908;2023-05-07T01:31:26;14.40;99.90
48836;DHT22;62581;47.342;7.908;2023-05-07T01:33:53;14.30;99.90
48836;DHT22;62581;47.342;7.908;2023-05-07T01:36:20;14.30;99.90
48836;DHT22;62581;47.342;7.908;2023-05-07T01:38:49;14.30;99.90
48836;DHT22;62581;47.342;7.908;2023-05-07T01:41:18;14.30;99.90
48836;DHT22;62581;47.342;7.908;2023-05-07T01:43:45;14.30;99.90
48836;DHT22;62581;47.342;7.908;2023-05-07T01:46:12;14.20;99.90
48836;DHT22;62581;47.342;7.908;2023-05-07T01:48:39;14.30;99.90
48836;DHT22;62581;47.342;7.908;2023-05-07T01:51:07;14.20;99.90
48836;DHT22;62581;47.342;7.908;2023-05-07T01:53:35;14.20;99.90
48836;DHT22;62581;47.342;7.908;2023-05-07T01:56:02;14.10;99.90
48836;DHT22;62581;47.342;7.908;2023-05-07T01:58:30;14.10;99.90
48836;DHT22;62581;47.342;7.908;2023-05-07T02:00:57;14.10;99.90
48836;DHT22;62581;47.342;7.908;2023-05-07T02:03:24;14.00;99.90
48836;DHT22;62581;47.342;7.908;2023-05-07T02:05:51;14.00;99.90
48836;DHT22;62581;47.342;7.908;2023-05-07T02:08:17;13.90;99.90
48836;DHT22;62581;47.342;7.908;2023-05-07T02:10:44;13.80;99.90
48836;DHT22;62581;47.342;7.908;2023-05-07T02:13:11;13.80;99.90
48836;DHT22;62581;47.342;7.908;2023-05-07T02:15:39;13.70;99.90
48836;DHT22;62581;47.342;7.908;2023-05-07T02:18:07;13.70;99.90
48836;DHT22;62581;47.342;7.908;2023-05-07T02:20:34;13.60;99.90
48836;DHT22;62581;47.342;7.908;2023-05-07T02:23:01;13.60;99.90
48836;DHT22;62581;47.342;7.908;2023-05-07T02:25:28;13.50;99.90
48836;DHT22;62581;47.342;7.908;2023-05-07T02:27:55;13.50;99.90
48836;DHT22;62581;47.342;7.908;2023-05-07T02:30:22;13.40;99.90
48836;DHT22;62581;47.342;7.908;2023-05-07T02:32:51;13.40;99.90
48836;DHT22;62581;47.342;7.908;2023-05-07T02:35:18;13.50;99.90
48836;DHT22;62581;47.342;7.908;2023-05-07T02:37:45;13.50;99.90
48836;DHT22;62581;47.342;7.908;2023-05-07T02:40:12;13.50;99.90
48836;DHT22;62581;47.342;7.908;2023-05-07T02:42:38;13.50;99.90
48836;DHT22;62581;47.342;7.908;2023-05-07T02:45:06;13.50;99.90
48836;DHT22;62581;47.342;7.908;2023-05-07T02:47:33;13.50;99.90
48836;DHT22;62581;47.342;7.908;2023-05-07T02:50:01;13.50;99.90
48836;DHT22;62581;47.342;7.908;2023-05-07T02:52:28;13.40;99.90
48836;DHT22;62581;47.342;7.908;2023-05-07T02:54:54;13.40;99.90
48836;DHT22;62581;47.342;7.908;2023-05-07T02:57:21;13.40;99.90
48836;DHT22;62581;47.342;7.908;2023-05-07T02:59:48;13.30;99.90
48836;DHT22;62581;47.342;7.908;2023-05-07T03:02:16;13.20;99.90
48836;DHT22;62581;47.342;7.908;2023-05-07T03:04:43;13.20;99.90
48836;DHT22;62581;47.342;7.908;2023-05-07T03:07:11;13.20;99.90
48836;DHT22;62581;47.342;7.908;2023-05-07T03:09:37;13.10;99.90
48836;DHT22;62581;47.342;7.908;2023-05-07T03:12:04;13.00;99.90
48836;DHT22;62581;47.342;7.908;2023-05-07T03:14:31;12.90;99.90
48836;DHT22;62581;47.342;7.908;2023-05-07T03:16:58;12.90;99.90
48836;DHT22;62581;47.342;7.908;2023-05-07T03:19:25;12.90;99.90
48836;DHT22;62581;47.342;7.908;2023-05-07T03:21:52;12.90;99.90
48836;DHT22;62581;47.342;7.908;2023-05-07T03:24:20;12.80;99.90
48836;DHT22;62581;47.342;7.908;2023-05-07T03:26:47;12.90;99.90
48836;DHT22;62581;47.342;7.908;2023-05-07T03:29:13;12.90;99.90
48836;DHT22;62581;47.342;7.908;2023-05-07T03:31:40;12.90;99.90
48836;DHT22;62581;47.342;7.908;2023-05-07T03:34:07;12.90;99.90
48836;DHT22;62581;47.342;7.908;2023-05-07T03:36:34;12.90;99.90
48836;DHT22;62581;47.342;7.908;2023-05-07T03:39:00;12.90;99.90
48836;DHT22;62581;47.342;7.908;2023-05-07T03:41:29;12.90;99.90
48836;DHT22;62581;47.342;7.908;2023-05-07T03:43:56;12.90;99.90
48836;DHT22;62581;47.342;7.908;2023-05-07T03:46:22;12.90;99.90
48836;DHT22;62581;47.342;7.908;2023-05-07T03:48:51;12.90;99.90
48836;DHT22;62581;47.342;7.908;2023-05-07T03:51:18;12.90;99.90
48836;DHT22;62581;47.342;7.908;2023-05-07T03:53:44;12.90;99.90
48836;DHT22;62581;47.342;7.908;2023-05-07T03:56:11;12.90;99.90
48836;DHT22;62581;47.342;7.908;2023-05-07T03:58:39;12.90;99.90
48836;DHT22;62581;47.342;7.908;2023-05-07T04:01:06;12.90;99.90
48836;DHT22;62581;47.342;7.908;2023-05-07T04:03:33;12.90;99.90
48836;DHT22;62581;47.342;7.908;2023-05-07T04:06:00;12.90;99.90
48836;DHT22;62581;47.342;7.908;2023-05-07T04:08:26;12.90;99.90
48836;DHT22;62581;47.342;7.908;2023-05-07T04:10:56;12.90;99.90
48836;DHT22;62581;47.342;7.908;2023-05-07T04:13:23;12.90;99.90
48836;DHT22;62581;47.342;7.908;2023-05-07T04:15:51;12.90;99.90
48836;DHT22;62581;47.342;7.908;2023-05-07T04:18:18;12.80;99.90
48836;DHT22;62581;47.342;7.908;2023-05-07T04:20:45;12.80;99.90
48836;DHT22;62581;47.342;7.908;2023-05-07T04:23:12;12.70;99.90
48836;DHT22;62581;47.342;7.908;2023-05-07T04:25:38;12.70;99.90
48836;DHT22;62581;47.342;7.908;2023-05-07T04:28:05;12.70;99.90
48836;DHT22;62581;47.342;7.908;2023-05-07T04:30:34;12.70;99.90
48836;DHT22;62581;47.342;7.908;2023-05-07T04:33:02;12.70;99.90
48836;DHT22;62581;47.342;7.908;2023-05-07T04:35:29;12.70;99.90
48836;DHT22;62581;47.342;7.908;2023-05-07T04:37:56;12.70;99.90
48836;DHT22;62581;47.342;7.908;2023-05-07T04:40:23;12.70;99.90
48836;DHT22;62581;47.342;7.908;2023-05-07T04:42:50;12.70;99.90
48836;DHT22;62581;47.342;7.908;2023-05-07T04:45:16;12.70;99.90
48836;DHT22;62581;47.342;7.908;2023-05-07T04:47:43;12.70;99.90
48836;DHT22;62581;47.342;7.908;2023-05-07T04:50:11;12.70;99.90
48836;DHT22;62581;47.342;7.908;2023-05-07T04:52:38;12.80;99.90
48836;DHT22;62581;47.342;7.908;2023-05-07T04:55:05;12.80;99.90
48836;DHT22;62581;47.342;7.908;2023-05-07T04:57:32;12.90;99.90
48836;DHT22;62581;47.342;7.908;2023-05-07T04:59:59;12.80;99.90
48836;DHT22;62581;47.342;7.908;2023-05-07T05:02:26;12.80;99.90
48836;DHT22;62581;47.342;7.908;2023-05-07T05:04:53;12.80;99.90
48836;DHT22;62581;47.342;7.908;2023-05-07T05:07:21;12.90;99.90
48836;DHT22;62581;47.342;7.908;2023-05-07T05:09:47;12.90;99.90
48836;DHT22;62581;47.342;7.908;2023-05-07T05:12:14;12.80;99.90
48836;DHT22;62581;47.342;7.908;2023-05-07T05:14:41;12.90;99.90
48836;DHT22;62581;47.342;7.908;2023-05-07T05:17:08;12.80;99.90
48836;DHT22;62581;47.342;7.908;2023-05-07T05:19:35;12.80;99.90
48836;DHT22;62581;47.342;7.908;2023-05-07T05:22:01;12.90;99.90
48836;DHT22;62581;47.342;7.908;2023-05-07T05:24:30;12.90;99.90
48836;DHT22;62581;47.342;7.908;2023-05-07T05:26:57;12.90;99.90
48836;DHT22;62581;47.342;7.908;2023-05-07T05:29:25;12.90;99.90
48836;DHT22;62581;47.342;7.908;2023-05-07T05:31:52;12.90;99.90
48836;DHT22;62581;47.342;7.908;2023-05-07T05:34:18;13.00;99.90
48836;DHT22;62581;47.342;7.908;2023-05-07T05:36:47;13.10;99.90
48836;DHT22;62581;47.342;7.908;2023-05-07T05:39:14;13.10;99.90
48836;DHT22;62581;47.342;7.908;2023-05-07T05:41:42;13.20;99.90
48836;DHT22;62581;47.342;7.908;2023-05-07T05:44:08;13.20;99.90
48836;DHT22;62581;47.342;7.908;2023-05-07T05:46:35;13.30;99.90
48836;DHT22;62581;47.342;7.908;2023-05-07T05:49:02;13.30;99.90
48836;DHT22;62581;47.342;7.908;2023-05-07T05:51:29;13.40;99.90
48836;DHT22;62581;47.342;7.908;2023-05-07T05:53:56;13.50;99.90
48836;DHT22;62581;47.342;7.908;2023-05-07T05:56:22;13.50;99.90
48836;DHT22;62581;47.342;7.908;2023-05-07T05:58:51;13.60;99.90
48836;DHT22;62581;47.342;7.908;2023-05-07T06:01:18;13.60;99.90
48836;DHT22;62581;47.342;7.908;2023-05-07T06:03:45;13.60;99.90
48836;DHT22;62581;47.342;7.908;2023-05-07T06:06:11;13.60;99.90
48836;DHT22;62581;47.342;7.908;2023-05-07T06:08:40;13.60;99.90
48836;DHT22;62581;47.342;7.908;2023-05-07T06:11:06;13.60;99.90
48836;DHT22;62581;47.342;7.908;2023-05-07T06:13:33;13.60;99.90
48836;DHT22;62581;47.342;7.908;2023-05-07T06:16:01;13.70;99.90
48836;DHT22;62581;47.342;7.908;2023-05-07T06:18:28;13.70;99.90
48836;DHT22;62581;47.342;7.908;2023-05-07T06:20:55;13.70;99.90
48836;DHT22;62581;47.342;7.908;2023-05-07T06:23:22;13.80;99.90
48836;DHT22;62581;47.342;7.908;2023-05-07T06:25:48;13.90;99.90
48836;DHT22;62581;47.342;7.908;2023-05-07T06:28:15;14.00;99.90
48836;DHT22;62581;47.342;7.908;2023-05-07T06:30:42;14.10;99.90
48836;DHT22;62581;47.342;7.908;2023-05-07T06:33:10;14.20;99.90
48836;DHT22;62581;47.342;7.908;2023-05-07T06:35:37;14.30;99.90
48836;DHT22;62581;47.342;7.908;2023-05-07T06:38:04;14.50;99.90
48836;DHT22;62581;47.342;7.908;2023-05-07T06:40:30;14.70;99.90
48836;DHT22;62581;47.342;7.908;2023-05-07T06:42:57;14.90;99.90
48836;DHT22;62581;47.342;7.908;2023-05-07T06:45:24;15.00;99.90
48836;DHT22;62581;47.342;7.908;2023-05-07T06:47:51;15.00;99.90
48836;DHT22;62581;47.342;7.908;2023-05-07T06:50:19;15.00;99.90
48836;DHT22;62581;47.342;7.908;2023-05-07T06:52:46;15.00;99.90
48836;DHT22;62581;47.342;7.908;2023-05-07T06:55:13;15.10;99.90
48836;DHT22;62581;47.342;7.908;2023-05-07T06:57:40;15.00;99.90
48836;DHT22;62581;47.342;7.908;2023-05-07T07:00:07;15.10;99.90
48836;DHT22;62581;47.342;7.908;2023-05-07T07:02:35;15.20;99.90
48836;DHT22;62581;47.342;7.908;2023-05-07T07:05:03;15.30;99.90
48836;DHT22;62581;47.342;7.908;2023-05-07T07:07:31;15.40;99.90
48836;DHT22;62581;47.342;7.908;2023-05-07T07:09:58;15.40;99.90
48836;DHT22;62581;47.342;7.908;2023-05-07T07:12:24;15.50;99.90
48836;DHT22;62581;47.342;7.908;2023-05-07T07:14:51;15.60;99.90
48836;DHT22;62581;47.342;7.908;2023-05-07T07:17:18;15.60;99.90
48836;DHT22;62581;47.342;7.908;2023-05-07T07:19:45;15.60;99.90
48836;DHT22;62581;47.342;7.908;2023-05-07T07:22:11;15.80;99.90
48836;DHT22;62581;47.342;7.908;2023-05-07T07:24:39;15.80;99.90
48836;DHT22;62581;47.342;7.908;2023-05-07T07:27:06;15.80;99.90
48836;DHT22;62581;47.342;7.908;2023-05-07T07:29:33;15.90;99.90
48836;DHT22;62581;47.342;7.908;2023-05-07T07:32:00;16.00;99.90
48836;DHT22;62581;47.342;7.908;2023-05-07T07:34:26;16.10;99.90
48836;DHT22;62581;47.342;7.908;2023-05-07T07:36:53;16.20;99.90
48836;DHT22;62581;47.342;7.908;2023-05-07T07:39:20;16.30;99.90
48836;DHT22;62581;47.342;7.908;2023-05-07T07:41:48;16.40;99.90
48836;DHT22;62581;47.342;7.908;2023-05-07T07:44:15;16.60;99.90
48836;DHT22;62581;47.342;7.908;2023-05-07T07:46:42;16.50;99.90
48836;DHT22;62581;47.342;7.908;2023-05-07T07:49:09;16.70;99.90
48836;DHT22;62581;47.342;7.908;2023-05-07T07:51:35;16.80;99.90
48836;DHT22;62581;47.342;7.908;2023-05-07T07:54:03;16.90;99.90
48836;DHT22;62581;47.342;7.908;2023-05-07T07:56:31;16.90;99.90
48836;DHT22;62581;47.342;7.908;2023-05-07T07:59:00;17.00;99.90
48836;DHT22;62581;47.342;7.908;2023-05-07T08:01:27;17.10;99.90
48836;DHT22;62581;47.342;7.908;2023-05-07T08:03:54;17.30;99.90
48836;DHT22;62581;47.342;7.908;2023-05-07T08:06:23;17.40;99.90
48836;DHT22;62581;47.342;7.908;2023-05-07T08:08:50;17.60;99.90
48836;DHT22;62581;47.342;7.908;2023-05-07T08:11:17;17.80;99.90
48836;DHT22;62581;47.342;7.908;2023-05-07T08:13:45;17.90;99.90
48836;DHT22;62581;47.342;7.908;2023-05-07T08:16:13;18.00;99.90
48836;DHT22;62581;47.342;7.908;2023-05-07T08:18:40;18.20;99.90
48836;DHT22;62581;47.342;7.908;2023-05-07T08:21:07;18.40;99.90
48836;DHT22;62581;47.342;7.908;2023-05-07T08:23:34;18.60;99.90
48836;DHT22;62581;47.342;7.908;2023-05-07T08:26:01;18.70;99.90
48836;DHT22;62581;47.342;7.908;2023-05-07T08:28:27;19.00;99.90
48836;DHT22;62581;47.342;7.908;2023-05-07T08:30:54;19.20;99.90
48836;DHT22;62581;47.342;7.908;2023-05-07T08:33:23;19.30;99.90
48836;DHT22;62581;47.342;7.908;2023-05-07T08:35:50;19.40;99.90
48836;DHT22;62581;47.342;7.908;2023-05-07T08:38:16;19.30;99.90
48836;DHT22;62581;47.342;7.908;2023-05-07T08:40:43;19.50;99.90
48836;DHT22;62581;47.342;7.908;2023-05-07T08:43:10;19.60;99.90
48836;DHT22;62581;47.342;7.908;2023-05-07T08:45:39;19.70;99.90
48836;DHT22;62581;47.342;7.908;2023-05-07T08:48:08;19.80;99.90
48836;DHT22;62581;47.342;7.908;2023-05-07T08:50:36;19.90;99.90
48836;DHT22;62581;47.342;7.908;2023-05-07T08:53:03;20.00;99.90
48836;DHT22;62581;47.342;7.908;2023-05-07T08:55:30;20.10;99.90
48836;DHT22;62581;47.342;7.908;2023-05-07T08:57:57;20.30;99.90
48836;DHT22;62581;47.342;7.908;2023-05-07T09:00:23;20.60;99.90
48836;DHT22;62581;47.342;7.908;2023-05-07T09:02:51;20.80;99.90
48836;DHT22;62581;47.342;7.908;2023-05-07T09:05:18;21.00;99.90
48836;DHT22;62581;47.342;7.908;2023-05-07T09:07:46;21.10;99.90
48836;DHT22;62581;47.342;7.908;2023-05-07T09:10:13;21.30;99.90
48836;DHT22;62581;47.342;7.908;2023-05-07T09:12:40;21.40;99.90
48836;DHT22;62581;47.342;7.908;2023-05-07T09:15:07;21.60;99.90
48836;DHT22;62581;47.342;7.908;2023-05-07T09:17:34;21.80;99.90
48836;DHT22;62581;47.342;7.908;2023-05-07T09:20:04;21.90;99.90
48836;DHT22;62581;47.342;7.908;2023-05-07T09:22:31;21.80;99.90
48836;DHT22;62581;47.342;7.908;2023-05-07T09:24:59;21.80;99.90
48836;DHT22;62581;47.342;7.908;2023-05-07T09:27:26;21.60;99.90
48836;DHT22;62581;47.342;7.908;2023-05-07T09:29:53;21.40;99.90
48836;DHT22;62581;47.342;7.908;2023-05-07T09:32:19;21.40;99.90
48836;DHT22;62581;47.342;7.908;2023-05-07T09:34:46;21.40;99.90
48836;DHT22;62581;47.342;7.908;2023-05-07T09:37:13;21.40;99.90
48836;DHT22;62581;47.342;7.908;2023-05-07T09:39:40;21.40;99.90
48836;DHT22;62581;47.342;7.908;2023-05-07T09:42:09;21.60;99.90
48836;DHT22;62581;47.342;7.908;2023-05-07T09:44:37;21.70;99.90
48836;DHT22;62581;47.342;7.908;2023-05-07T09:47:04;21.70;99.90
48836;DHT22;62581;47.342;7.908;2023-05-07T09:49:33;21.90;99.90
48836;DHT22;62581;47.342;7.908;2023-05-07T09:52:00;22.00;99.90
48836;DHT22;62581;47.342;7.908;2023-05-07T09:54:27;22.20;99.90
48836;DHT22;62581;47.342;7.908;2023-05-07T09:56:54;22.20;99.90
48836;DHT22;62581;47.342;7.908;2023-05-07T09:59:23;22.30;99.90
48836;DHT22;62581;47.342;7.908;2023-05-07T10:01:50;22.50;99.90
48836;DHT22;62581;47.342;7.908;2023-05-07T10:04:18;22.60;99.90
48836;DHT22;62581;47.342;7.908;2023-05-07T10:06:46;22.50;99.90
48836;DHT22;62581;47.342;7.908;2023-05-07T10:09:13;22.70;99.90
48836;DHT22;62581;47.342;7.908;2023-05-07T10:11:40;23.10;99.90
48836;DHT22;62581;47.342;7.908;2023-05-07T10:14:07;23.30;99.90
48836;DHT22;62581;47.342;7.908;2023-05-07T10:16:36;23.30;99.90
48836;DHT22;62581;47.342;7.908;2023-05-07T10:19:03;23.40;99.90
48836;DHT22;62581;47.342;7.908;2023-05-07T10:21:30;23.10;99.90
48836;DHT22;62581;47.342;7.908;2023-05-07T10:23:58;23.20;99.90
48836;DHT22;62581;47.342;7.908;2023-05-07T10:26:25;22.80;99.90
48836;DHT22;62581;47.342;7.908;2023-05-07T10:28:54;22.90;99.90
48836;DHT22;62581;47.342;7.908;2023-05-07T10:31:31;23.00;99.90
48836;DHT22;62581;47.342;7.908;2023-05-07T10:34:03;23.50;99.90
48836;DHT22;62581;47.342;7.908;2023-05-07T10:36:34;23.80;99.90
48836;DHT22;62581;47.342;7.908;2023-05-07T10:39:02;23.80;99.90
48836;DHT22;62581;47.342;7.908;2023-05-07T10:41:29;23.50;99.90
48836;DHT22;62581;47.342;7.908;2023-05-07T10:43:55;23.50;99.90
48836;DHT22;62581;47.342;7.908;2023-05-07T10:46:22;23.50;99.90
48836;DHT22;62581;47.342;7.908;2023-05-07T10:49:12;23.90;99.90
48836;DHT22;62581;47.342;7.908;2023-05-07T10:51:39;24.10;99.90
48836;DHT22;62581;47.342;7.908;2023-05-07T10:54:18;24.30;99.90
48836;DHT22;62581;47.342;7.908;2023-05-07T10:56:45;24.40;99.90
48836;DHT22;62581;47.342;7.908;2023-05-07T11:02:06;23.80;99.90
48836;DHT22;62581;47.342;7.908;2023-05-07T11:04:36;23.10;99.90
48836;DHT22;62581;47.342;7.908;2023-05-07T11:09:55;22.70;99.90
48836;DHT22;62581;47.342;7.908;2023-05-07T11:15:09;23.50;99.90
48836;DHT22;62581;47.342;7.908;2023-05-07T11:20:19;23.60;99.90
48836;DHT22;62581;47.342;7.908;2023-05-07T11:22:46;23.90;99.90
48836;DHT22;62581;47.342;7.908;2023-05-07T11:25:17;23.90;99.90
48836;DHT22;62581;47.342;7.908;2023-05-07T11:27:44;23.50;99.90
48836;DHT22;62581;47.342;7.908;2023-05-07T11:30:11;23.60;99.90
48836;DHT22;62581;47.342;7.908;2023-05-07T11:32:43;23.80;99.90
48836;DHT22;62581;47.342;7.908;2023-05-07T11:35:09;23.90;99.90
48836;DHT22;62581;47.342;7.908;2023-05-07T11:37:37;23.80;99.90
48836;DHT22;62581;47.342;7.908;2023-05-07T11:40:07;24.10;99.90
48836;DHT22;62581;47.342;7.908;2023-05-07T11:42:35;24.10;99.90
48836;DHT22;62581;47.342;7.908;2023-05-07T11:45:03;24.40;99.90
48836;DHT22;62581;47.342;7.908;2023-05-07T11:47:31;24.50;99.90
48836;DHT22;62581;47.342;7.908;2023-05-07T11:50:01;24.80;99.90
48836;DHT22;62581;47.342;7.908;2023-05-07T11:52:28;24.90;99.90
48836;DHT22;62581;47.342;7.908;2023-05-07T11:54:57;24.30;99.90
48836;DHT22;62581;47.342;7.908;2023-05-07T11:57:25;23.90;99.90
48836;DHT22;62581;47.342;7.908;2023-05-07T11:59:52;23.40;99.90
48836;DHT22;62581;47.342;7.908;2023-05-07T12:02:19;23.60;99.90
48836;DHT22;62581;47.342;7.908;2023-05-07T12:04:46;23.10;99.90
48836;DHT22;62581;47.342;7.908;2023-05-07T12:07:13;23.10;99.90
48836;DHT22;62581;47.342;7.908;2023-05-07T12:09:40;22.90;99.90
48836;DHT22;62581;47.342;7.908;2023-05-07T12:12:08;22.70;99.90
48836;DHT22;62581;47.342;7.908;2023-05-07T12:14:37;22.60;99.90
48836;DHT22;62581;47.342;7.908;2023-05-07T12:17:04;22.50;99.90
48836;DHT22;62581;47.342;7.908;2023-05-07T12:19:31;22.00;99.90
48836;DHT22;62581;47.342;7.908;2023-05-07T12:21:58;21.70;99.90
48836;DHT22;62581;47.342;7.908;2023-05-07T12:24:25;21.20;99.90
48836;DHT22;62581;47.342;7.908;2023-05-07T12:26:51;20.90;99.90
48836;DHT22;62581;47.342;7.908;2023-05-07T12:29:22;20.90;99.90
48836;DHT22;62581;47.342;7.908;2023-05-07T12:31:49;20.80;99.90
48836;DHT22;62581;47.342;7.908;2023-05-07T12:34:16;20.60;99.90
48836;DHT22;62581;47.342;7.908;2023-05-07T12:36:43;20.30;99.90
48836;DHT22;62581;47.342;7.908;2023-05-07T12:39:09;20.20;99.90
48836;DHT22;62581;47.342;7.908;2023-05-07T12:41:43;20.20;99.90
48836;DHT22;62581;47.342;7.908;2023-05-07T12:44:18;20.60;99.90
48836;DHT22;62581;47.342;7.908;2023-05-07T12:46:47;20.90;99.90
48836;DHT22;62581;47.342;7.908;2023-05-07T12:49:14;21.40;99.90
48836;DHT22;62581;47.342;7.908;2023-05-07T12:51:41;21.50;99.90
48836;DHT22;62581;47.342;7.908;2023-05-07T12:54:08;22.40;99.90
48836;DHT22;62581;47.342;7.908;2023-05-07T12:56:35;23.40;99.90
48836;DHT22;62581;47.342;7.908;2023-05-07T12:59:02;23.90;99.90
48836;DHT22;62581;47.342;7.908;2023-05-07T13:01:29;23.80;99.90
48836;DHT22;62581;47.342;7.908;2023-05-07T13:03:59;23.30;99.90
48836;DHT22;62581;47.342;7.908;2023-05-07T13:06:26;23.20;99.90
48836;DHT22;62581;47.342;7.908;2023-05-07T13:08:53;23.20;99.90
48836;DHT22;62581;47.342;7.908;2023-05-07T13:11:20;23.60;99.90
48836;DHT22;62581;47.342;7.908;2023-05-07T13:13:47;23.20;99.90
48836;DHT22;62581;47.342;7.908;2023-05-07T13:16:14;24.00;99.90
48836;DHT22;62581;47.342;7.908;2023-05-07T13:18:41;25.30;99.90
48836;DHT22;62581;47.342;7.908;2023-05-07T13:21:10;25.70;99.90
48836;DHT22;62581;47.342;7.908;2023-05-07T13:23:38;25.80;99.90
48836;DHT22;62581;47.342;7.908;2023-05-07T13:26:05;25.90;99.90
48836;DHT22;62581;47.342;7.908;2023-05-07T13:28:32;27.20;99.90
48836;DHT22;62581;47.342;7.908;2023-05-07T13:30:59;28.20;99.90
48836;DHT22;62581;47.342;7.908;2023-05-07T13:33:26;26.90;99.90
48836;DHT22;62581;47.342;7.908;2023-05-07T13:35:52;27.70;99.90
48836;DHT22;62581;47.342;7.908;2023-05-07T13:38:20;28.70;99.90
48836;DHT22;62581;47.342;7.908;2023-05-07T13:40:47;30.00;99.90
48836;DHT22;62581;47.342;7.908;2023-05-07T13:43:14;29.40;99.90
48836;DHT22;62581;47.342;7.908;2023-05-07T13:45:42;29.50;99.90
48836;DHT22;62581;47.342;7.908;2023-05-07T13:48:09;29.40;99.90
48836;DHT22;62581;47.342;7.908;2023-05-07T13:50:36;28.20;99.90
48836;DHT22;62581;47.342;7.908;2023-05-07T13:53:03;27.60;99.90
48836;DHT22;62581;47.342;7.908;2023-05-07T13:55:31;26.90;99.90
48836;DHT22;62581;47.342;7.908;2023-05-07T13:57:58;26.60;99.90
48836;DHT22;62581;47.342;7.908;2023-05-07T14:00:26;25.20;99.90
48836;DHT22;62581;47.342;7.908;2023-05-07T14:02:53;23.90;99.90
48836;DHT22;62581;47.342;7.908;2023-05-07T14:05:20;23.10;99.90
48836;DHT22;62581;47.342;7.908;2023-05-07T14:07:48;22.80;99.90
48836;DHT22;62581;47.342;7.908;2023-05-07T14:10:17;22.90;99.90
48836;DHT22;62581;47.342;7.908;2023-05-07T14:12:45;22.40;99.90
48836;DHT22;62581;47.342;7.908;2023-05-07T14:15:11;22.30;99.90
48836;DHT22;62581;47.342;7.908;2023-05-07T14:17:38;22.10;99.90
48836;DHT22;62581;47.342;7.908;2023-05-07T14:20:05;21.90;99.90
48836;DHT22;62581;47.342;7.908;2023-05-07T14:22:32;21.60;99.90
48836;DHT22;62581;47.342;7.908;2023-05-07T14:24:59;21.60;99.90
48836;DHT22;62581;47.342;7.908;2023-05-07T14:27:26;21.10;99.90
48836;DHT22;62581;47.342;7.908;2023-05-07T14:29:54;20.60;99.90
48836;DHT22;62581;47.342;7.908;2023-05-07T14:32:21;20.40;99.90
48836;DHT22;62581;47.342;7.908;2023-05-07T14:34:48;20.30;99.90
48836;DHT22;62581;47.342;7.908;2023-05-07T14:37:15;20.60;99.90
48836;DHT22;62581;47.342;7.908;2023-05-07T14:39:43;20.60;99.90
48836;DHT22;62581;47.342;7.908;2023-05-07T14:42:10;20.40;99.90
48836;DHT22;62581;47.342;7.908;2023-05-07T14:44:37;20.20;99.90
48836;DHT22;62581;47.342;7.908;2023-05-07T14:47:07;20.20;99.90
48836;DHT22;62581;47.342;7.908;2023-05-07T14:49:34;20.20;99.90
48836;DHT22;62581;47.342;7.908;2023-05-07T14:52:00;20.10;99.90
48836;DHT22;62581;47.342;7.908;2023-05-07T14:54:27;20.10;99.90
48836;DHT22;62581;47.342;7.908;2023-05-07T14:56:54;20.20;99.90
48836;DHT22;62581;47.342;7.908;2023-05-07T14:59:21;20.30;99.90
48836;DHT22;62581;47.342;7.908;2023-05-07T15:01:50;20.30;99.90
48836;DHT22;62581;47.342;7.908;2023-05-07T15:04:18;20.30;99.90
48836;DHT22;62581;47.342;7.908;2023-05-07T15:06:45;20.20;99.90
48836;DHT22;62581;47.342;7.908;2023-05-07T15:09:12;19.80;99.90
48836;DHT22;62581;47.342;7.908;2023-05-07T15:11:39;19.90;99.90
48836;DHT22;62581;47.342;7.908;2023-05-07T15:14:06;19.90;99.90
48836;DHT22;62581;47.342;7.908;2023-05-07T15:16:33;20.00;99.90
48836;DHT22;62581;47.342;7.908;2023-05-07T15:19:00;20.10;99.90
48836;DHT22;62581;47.342;7.908;2023-05-07T15:21:28;20.20;99.90
48836;DHT22;62581;47.342;7.908;2023-05-07T15:23:56;20.20;99.90
48836;DHT22;62581;47.342;7.908;2023-05-07T15:26:22;20.20;99.90
48836;DHT22;62581;47.342;7.908;2023-05-07T15:28:49;20.30;99.90
48836;DHT22;62581;47.342;7.908;2023-05-07T15:31:16;20.20;99.90
48836;DHT22;62581;47.342;7.908;2023-05-07T15:33:43;20.10;99.90
48836;DHT22;62581;47.342;7.908;2023-05-07T15:36:10;20.10;99.90
48836;DHT22;62581;47.342;7.908;2023-05-07T15:38:38;20.00;99.90
48836;DHT22;62581;47.342;7.908;2023-05-07T15:41:05;20.00;99.90